Time;durP1;ratioP1;P1;durP2;ratioP2;P2;SDS_P1;SDS_P2;PMS_P1;PMS_P2;Temp;Humidity;BMP_temperature;BMP_pressure;BME280_temperature;BME280_humidity;BME280_pressure;Samples;Min_cycle;Max_cycle;Signal;HPM_P1;HPM_P2
2023/01/12 00:01:24;;;;;;;17.13;16.33;;;;;;;;;;5098158;28;20505;-82
2023/01/12 00:03:51;;;;;;;18.08;17.00;;;;;;;;;;5096900;28;20221;-83
2023/01/12 00:06:19;;;;;;;18.17;17.08;;;;;;;;;;5098018;28;20279;-82
2023/01/12 00:08:46;;;;;;;18.70;17.37;;;;;;;;;;5098328;28;20228;-82
2023/01/12 00:11:13;;;;;;;18.60;17.50;;;;;;;;;;5098509;28;20427;-81
2023/01/12 00:13:40;;;;;;;17.35;16.40;;;;;;;;;;5097091;28;20483;-82
2023/01/12 00:18:59;;;;;;;19.30;17.67;;;;;;;;;;5097941;28;20447;-81
2023/01/12 00:21:26;;;;;;;19.67;18.37;;;;;;;;;;5097933;28;20426;-81
2023/01/12 00:23:53;;;;;;;17.93;16.93;;;;;;;;;;5097462;28;20433;-82
2023/01/12 00:26:20;;;;;;;18.07;16.93;;;;;;;;;;5097669;28;20488;-82
2023/01/12 00:28:47;;;;;;;17.90;16.87;;;;;;;;;;5097581;28;20450;-81
2023/01/12 00:31:15;;;;;;;17.90;17.10;;;;;;;;;;5097567;28;20477;-81
2023/01/12 00:33:42;;;;;;;18.73;17.50;;;;;;;;;;5100889;28;20209;-81
2023/01/12 00:36:11;;;;;;;17.73;16.73;;;;;;;;;;5100548;28;20508;-82
2023/01/12 00:38:38;;;;;;;17.90;16.60;;;;;;;;;;5101585;28;20440;-82
2023/01/12 00:41:06;;;;;;;17.63;16.53;;;;;;;;;;5101580;28;20915;-82
2023/01/12 00:46:20;;;;;;;20.07;17.73;;;;;;;;;;5101114;28;20416;-81
2023/01/12 00:48:47;;;;;;;19.37;17.77;;;;;;;;;;5101519;28;20855;-81
2023/01/12 00:51:14;;;;;;;19.53;18.17;;;;;;;;;;5100720;28;20993;-82
2023/01/12 00:53:41;;;;;;;18.63;17.30;;;;;;;;;;5100757;28;20484;-82
2023/01/12 00:56:08;;;;;;;19.20;18.10;;;;;;;;;;5100822;28;20475;-81
2023/01/12 00:58:35;;;;;;;20.53;18.97;;;;;;;;;;5101267;28;20466;-82
2023/01/12 01:01:06;;;;;;;19.37;18.07;;;;;;;;;;5101312;28;20471;-81
2023/01/12 01:03:34;;;;;;;19.83;18.52;;;;;;;;;;5100820;28;20427;-81
2023/01/12 01:06:02;;;;;;;20.80;19.67;;;;;;;;;;5101114;28;20226;-82
2023/01/12 01:08:29;;;;;;;20.20;18.80;;;;;;;;;;5101090;28;20429;-81
2023/01/12 01:11:01;;;;;;;20.70;19.30;;;;;;;;;;5100683;28;20923;-82
2023/01/12 01:13:28;;;;;;;22.03;20.40;;;;;;;;;;5100906;28;20423;-81
2023/01/12 01:15:56;;;;;;;20.63;19.33;;;;;;;;;;5101123;28;20476;-82
2023/01/12 01:18:23;;;;;;;19.37;18.17;;;;;;;;;;5100079;28;20658;-82
2023/01/12 01:20:51;;;;;;;20.87;19.20;;;;;;;;;;5100087;28;20506;-81
2023/01/12 01:23:18;;;;;;;19.67;18.43;;;;;;;;;;5099795;28;20537;-81
2023/01/12 01:25:45;;;;;;;19.67;18.10;;;;;;;;;;5100149;28;20988;-81
2023/01/12 01:28:12;;;;;;;19.83;18.58;;;;;;;;;;5101135;28;20452;-81
2023/01/12 01:30:39;;;;;;;19.13;17.77;;;;;;;;;;5100115;28;20245;-81
2023/01/12 01:33:06;;;;;;;19.80;18.50;;;;;;;;;;5100099;28;20479;-81
2023/01/12 01:35:33;;;;;;;18.20;17.27;;;;;;;;;;5100635;28;20826;-81
2023/01/12 01:38:01;;;;;;;18.20;17.00;;;;;;;;;;5099836;28;20427;-81
2023/01/12 01:40:28;;;;;;;17.87;16.83;;;;;;;;;;5100173;28;20495;-80
2023/01/12 01:42:55;;;;;;;18.37;17.23;;;;;;;;;;5100044;28;20435;-83
2023/01/12 01:45:22;;;;;;;17.80;16.90;;;;;;;;;;5099258;28;20430;-81
2023/01/12 01:47:51;;;;;;;18.37;17.17;;;;;;;;;;5099661;28;20459;-81
2023/01/12 01:50:20;;;;;;;19.43;17.90;;;;;;;;;;5100098;28;20983;-81
2023/01/12 01:52:49;;;;;;;17.90;16.97;;;;;;;;;;5099896;28;20811;-82
2023/01/12 01:55:20;;;;;;;18.45;17.65;;;;;;;;;;5099265;28;20452;-81
2023/01/12 01:57:48;;;;;;;20.23;18.60;;;;;;;;;;5099306;28;20252;-81
2023/01/12 02:00:16;;;;;;;20.75;19.40;;;;;;;;;;5100029;28;20444;-81
2023/01/12 02:02:44;;;;;;;19.40;18.30;;;;;;;;;;5099947;28;20258;-81
2023/01/12 02:05:12;;;;;;;19.33;18.47;;;;;;;;;;5098883;28;20418;-81
2023/01/12 02:07:39;;;;;;;20.07;18.97;;;;;;;;;;5099590;28;20513;-80
2023/01/12 02:10:06;;;;;;;20.97;19.97;;;;;;;;;;5098788;28;20495;-82
2023/01/12 02:18:10;;;;;;;22.40;20.90;;;;;;;;;;5099401;28;20481;-82
2023/01/12 02:21:01;;;;;;;21.70;20.60;;;;;;;;;;5098954;28;20460;-81
2023/01/12 02:23:47;;;;;;;23.40;21.77;;;;;;;;;;5078640;28;20495;-82
2023/01/12 02:26:35;;;;;;;23.70;22.05;;;;;;;;;;5099157;28;20234;-81
2023/01/12 02:29:17;;;;;;;23.65;22.45;;;;;;;;;;5099724;28;20585;-82
2023/01/12 02:31:50;;;;;;;24.30;22.45;;;;;;;;;;5106131;28;20209;-82
2023/01/12 02:34:24;;;;;;;23.77;22.37;;;;;;;;;;5109571;28;20194;-82
2023/01/12 02:36:53;;;;;;;23.55;22.08;;;;;;;;;;5107875;28;20496;-82
2023/01/12 02:39:23;;;;;;;23.55;22.33;;;;;;;;;;5099521;28;20236;-82
2023/01/12 02:44:40;;;;;;;23.27;22.03;;;;;;;;;;5098583;28;20411;-81
2023/01/12 02:47:11;;;;;;;24.03;22.83;;;;;;;;;;5098025;28;20960;-81
2023/01/12 02:49:44;;;;;;;24.10;22.83;;;;;;;;;;5099014;28;20497;-81
2023/01/12 02:52:13;;;;;;;23.33;22.13;;;;;;;;;;5098889;28;20411;-82
2023/01/12 02:54:41;;;;;;;25.97;24.07;;;;;;;;;;5098003;28;20959;-82
2023/01/12 02:57:09;;;;;;;24.50;22.92;;;;;;;;;;5098215;28;21027;-81
2023/01/12 02:59:38;;;;;;;23.38;22.08;;;;;;;;;;5099454;28;20185;-81
2023/01/12 03:02:07;;;;;;;24.40;22.90;;;;;;;;;;5098181;28;20209;-80
2023/01/12 03:04:36;;;;;;;22.40;21.40;;;;;;;;;;5098105;28;20518;-81
2023/01/12 03:07:21;;;;;;;23.13;21.70;;;;;;;;;;5098568;28;20490;-81
2023/01/12 03:09:51;;;;;;;23.90;22.30;;;;;;;;;;5098713;28;20457;-81
2023/01/12 03:12:20;;;;;;;23.37;22.17;;;;;;;;;;5098686;28;20479;-81
2023/01/12 03:14:49;;;;;;;23.03;21.70;;;;;;;;;;5097856;28;20449;-82
2023/01/12 03:17:17;;;;;;;23.13;21.97;;;;;;;;;;5097119;28;20533;-81
2023/01/12 03:19:46;;;;;;;24.47;22.67;;;;;;;;;;5097905;28;20851;-81
2023/01/12 03:22:16;;;;;;;40.63;22.63;;;;;;;;;;5098034;28;21060;-81
2023/01/12 03:24:46;;;;;;;23.30;21.20;;;;;;;;;;5097536;28;20431;-81
2023/01/12 03:27:16;;;;;;;22.43;21.23;;;;;;;;;;5098722;28;20479;-82
2023/01/12 03:29:44;;;;;;;22.30;21.00;;;;;;;;;;5098483;28;20487;-81
2023/01/12 03:32:12;;;;;;;22.00;20.90;;;;;;;;;;5097277;28;20466;-82
2023/01/12 03:34:39;;;;;;;21.60;20.33;;;;;;;;;;5097631;28;20483;-81
2023/01/12 03:37:11;;;;;;;21.27;20.17;;;;;;;;;;5097669;28;20464;-81
2023/01/12 03:39:43;;;;;;;20.90;19.90;;;;;;;;;;5097899;28;20185;-81
2023/01/12 03:42:12;;;;;;;21.67;20.67;;;;;;;;;;5098000;28;20649;-80
2023/01/12 03:44:41;;;;;;;22.90;21.70;;;;;;;;;;5097141;28;20555;-82
2023/01/12 03:47:12;;;;;;;23.33;22.10;;;;;;;;;;5096569;28;20519;-81
2023/01/12 03:49:41;;;;;;;25.00;23.10;;;;;;;;;;5097485;28;20485;-81
2023/01/12 03:52:10;;;;;;;23.90;22.30;;;;;;;;;;5097632;28;20419;-82
2023/01/12 03:54:39;;;;;;;26.70;24.60;;;;;;;;;;5096904;28;20491;-81
2023/01/12 03:57:07;;;;;;;26.65;24.65;;;;;;;;;;5097224;28;20229;-82
2023/01/12 03:59:33;;;;;;;25.87;24.37;;;;;;;;;;5097731;28;20600;-81
2023/01/12 04:02:00;;;;;;;26.00;24.10;;;;;;;;;;5097203;28;20478;-81
2023/01/12 04:04:27;;;;;;;28.30;25.63;;;;;;;;;;5097422;28;20422;-81
2023/01/12 04:06:54;;;;;;;27.10;25.13;;;;;;;;;;5098271;28;20225;-82
2023/01/12 04:09:24;;;;;;;27.47;25.87;;;;;;;;;;5101660;28;20414;-81
2023/01/12 04:12:09;;;;;;;28.27;26.38;;;;;;;;;;5102327;28;20479;-81
2023/01/12 04:14:36;;;;;;;27.80;26.10;;;;;;;;;;5100865;28;20580;-81
2023/01/12 04:17:03;;;;;;;26.83;25.33;;;;;;;;;;5100990;28;20482;-80
2023/01/12 04:19:30;;;;;;;28.30;26.50;;;;;;;;;;5101587;28;20406;-81
2023/01/12 04:24:43;;;;;;;27.73;26.10;;;;;;;;;;5101297;28;20420;-80
2023/01/12 04:27:10;;;;;;;28.98;27.30;;;;;;;;;;5101048;28;20450;-80
2023/01/12 04:29:37;;;;;;;29.00;27.30;;;;;;;;;;5101279;28;20205;-82
2023/01/12 04:32:04;;;;;;;29.97;27.47;;;;;;;;;;5101082;28;20475;-80
2023/01/12 04:34:31;;;;;;;37.03;35.00;;;;;;;;;;5101365;28;20434;-82
2023/01/12 04:37:02;;;;;;;34.25;32.63;;;;;;;;;;5101411;28;20468;-82
2023/01/12 04:39:29;;;;;;;39.10;36.87;;;;;;;;;;5101643;28;20279;-82
2023/01/12 04:41:57;;;;;;;30.67;28.70;;;;;;;;;;5101466;28;20992;-82
2023/01/12 04:44:24;;;;;;;33.47;30.88;;;;;;;;;;5100703;28;20429;-80
2023/01/12 04:46:51;;;;;;;31.67;30.07;;;;;;;;;;5100675;28;20229;-82
2023/01/12 04:49:18;;;;;;;30.83;29.33;;;;;;;;;;5101416;28;20411;-82
2023/01/12 04:51:45;;;;;;;32.67;30.97;;;;;;;;;;5101214;28;20301;-82
2023/01/12 04:54:13;;;;;;;32.03;30.33;;;;;;;;;;5101223;28;20406;-82
2023/01/12 04:56:39;;;;;;;33.40;31.40;;;;;;;;;;5101899;28;20468;-81
2023/01/12 04:59:09;;;;;;;36.30;34.00;;;;;;;;;;5101585;28;20987;-82
2023/01/12 05:01:37;;;;;;;30.83;29.00;;;;;;;;;;5101666;28;20895;-82
2023/01/12 05:04:05;;;;;;;31.13;29.42;;;;;;;;;;5100066;28;20439;-82
2023/01/12 05:06:32;;;;;;;32.00;29.43;;;;;;;;;;5101664;28;20230;-83
2023/01/12 05:11:43;;;;;;;31.00;29.30;;;;;;;;;;5101275;28;20220;-82
2023/01/12 05:14:12;;;;;;;28.33;26.83;;;;;;;;;;5098622;28;20430;-81
2023/01/12 05:16:39;;;;;;;32.20;30.03;;;;;;;;;;5095542;28;20458;-83
2023/01/12 05:19:06;;;;;;;31.97;30.47;;;;;;;;;;5101374;28;20456;-82
2023/01/12 05:21:32;;;;;;;40.28;38.17;;;;;;;;;;5101048;28;20470;-82
2023/01/12 05:23:59;;;;;;;34.17;32.47;;;;;;;;;;5100679;28;20602;-82
2023/01/12 05:26:27;;;;;;;42.93;40.67;;;;;;;;;;5101415;28;20236;-82
2023/01/12 05:28:54;;;;;;;41.42;39.33;;;;;;;;;;5101256;28;20453;-83
2023/01/12 05:31:23;;;;;;;36.13;33.77;;;;;;;;;;5100205;28;20225;-83
2023/01/12 05:33:50;;;;;;;34.70;33.10;;;;;;;;;;5100456;28;20514;-82
2023/01/12 05:36:17;;;;;;;34.77;33.07;;;;;;;;;;5100595;28;20268;-83
2023/01/12 05:38:44;;;;;;;34.70;32.90;;;;;;;;;;5101465;28;20931;-82
2023/01/12 05:41:13;;;;;;;33.30;31.60;;;;;;;;;;5100613;28;20906;-82
2023/01/12 05:43:51;;;;;;;36.13;34.23;;;;;;;;;;5100158;28;20546;-83
2023/01/12 05:46:19;;;;;;;35.03;33.13;;;;;;;;;;5100872;28;20457;-81
2023/01/12 05:48:48;;;;;;;35.30;33.30;;;;;;;;;;5100374;28;20436;-82
2023/01/12 05:51:15;;;;;;;34.05;32.25;;;;;;;;;;5100769;28;20299;-82
2023/01/12 05:53:42;;;;;;;33.47;31.67;;;;;;;;;;5100284;28;20236;-82
2023/01/12 05:56:10;;;;;;;34.33;32.42;;;;;;;;;;5099223;28;20455;-82
2023/01/12 05:58:37;;;;;;;32.67;30.98;;;;;;;;;;5100003;28;20198;-82
2023/01/12 06:01:08;;;;;;;33.92;32.03;;;;;;;;;;5100914;28;20543;-83
2023/01/12 06:03:35;;;;;;;33.88;31.92;;;;;;;;;;5100209;28;20240;-82
2023/01/12 06:06:04;;;;;;;32.40;30.70;;;;;;;;;;5100130;28;20286;-83
2023/01/12 06:08:31;;;;;;;32.53;30.92;;;;;;;;;;5100514;28;20201;-82
2023/01/12 06:11:01;;;;;;;32.72;30.90;;;;;;;;;;5099044;28;20225;-83
2023/01/12 06:16:12;;;;;;;32.83;31.05;;;;;;;;;;5098173;28;20919;-83
2023/01/12 06:18:40;;;;;;;36.33;34.53;;;;;;;;;;5100254;28;20596;-82
2023/01/12 06:21:09;;;;;;;34.67;32.60;;;;;;;;;;5097484;28;20202;-82
2023/01/12 06:23:36;;;;;;;34.00;32.33;;;;;;;;;;5099409;28;20522;-83
2023/01/12 06:26:04;;;;;;;33.17;31.55;;;;;;;;;;5100004;28;20221;-83
2023/01/12 06:28:31;;;;;;;33.55;31.60;;;;;;;;;;5100530;28;20198;-83
2023/01/12 06:30:58;;;;;;;33.22;31.63;;;;;;;;;;5099344;28;20274;-82
2023/01/12 06:33:25;;;;;;;31.55;29.95;;;;;;;;;;5099441;28;20618;-83
2023/01/12 06:35:52;;;;;;;35.10;33.40;;;;;;;;;;5100387;28;20205;-83
2023/01/12 06:38:20;;;;;;;40.53;38.08;;;;;;;;;;5099967;28;20442;-83
2023/01/12 06:40:47;;;;;;;36.85;35.00;;;;;;;;;;5100729;28;20194;-82
2023/01/12 06:43:14;;;;;;;36.23;34.43;;;;;;;;;;5099701;28;20205;-83
2023/01/12 06:45:41;;;;;;;33.27;31.57;;;;;;;;;;5099754;28;20451;-83
2023/01/12 06:48:08;;;;;;;33.90;32.20;;;;;;;;;;5100195;28;20489;-83
2023/01/12 06:50:36;;;;;;;36.92;35.13;;;;;;;;;;5099976;28;20423;-82
2023/01/12 06:53:03;;;;;;;35.42;33.28;;;;;;;;;;5102596;28;20202;-83
2023/01/12 06:55:32;;;;;;;34.45;32.85;;;;;;;;;;5104026;28;20198;-82
2023/01/12 06:58:01;;;;;;;38.20;36.20;;;;;;;;;;5103795;28;20751;-83
2023/01/12 07:00:29;;;;;;;40.03;38.00;;;;;;;;;;5099380;28;20197;-84
2023/01/12 07:02:56;;;;;;;38.83;36.80;;;;;;;;;;5099266;28;20411;-84
2023/01/12 07:05:23;;;;;;;37.53;35.70;;;;;;;;;;5099304;28;20447;-82
2023/01/12 07:07:50;;;;;;;35.10;33.37;;;;;;;;;;5099261;28;20226;-82
2023/01/12 07:10:17;;;;;;;34.75;33.05;;;;;;;;;;5099053;28;20444;-82
2023/01/12 07:12:45;;;;;;;36.37;34.47;;;;;;;;;;5099598;28;20226;-82
2023/01/12 07:15:14;;;;;;;37.05;35.30;;;;;;;;;;5098878;28;20798;-82
2023/01/12 07:17:41;;;;;;;35.73;34.03;;;;;;;;;;5098345;28;20225;-82
2023/01/12 07:20:08;;;;;;;35.63;33.83;;;;;;;;;;5098983;28;20432;-82
2023/01/12 07:22:35;;;;;;;37.00;35.20;;;;;;;;;;5098418;28;20448;-82
2023/01/12 07:25:02;;;;;;;36.58;34.78;;;;;;;;;;5098094;28;20232;-82
2023/01/12 07:27:29;;;;;;;34.37;32.67;;;;;;;;;;5098954;28;20230;-83
2023/01/12 07:29:57;;;;;;;35.50;33.80;;;;;;;;;;5098512;28;21009;-82
2023/01/12 07:32:26;;;;;;;36.67;34.43;;;;;;;;;;5098813;28;20462;-83
2023/01/12 07:34:53;;;;;;;36.03;34.23;;;;;;;;;;5098144;28;20515;-82
2023/01/12 07:37:20;;;;;;;34.70;33.00;;;;;;;;;;5098403;28;20446;-83
2023/01/12 07:39:47;;;;;;;34.90;33.08;;;;;;;;;;5098700;28;20454;-83
2023/01/12 07:42:23;;;;;;;33.97;32.33;;;;;;;;;;5097829;28;20206;-82
2023/01/12 07:44:50;;;;;;;34.75;32.65;;;;;;;;;;5097682;28;20404;-83
2023/01/12 07:47:18;;;;;;;34.60;32.80;;;;;;;;;;5099413;28;20225;-82
2023/01/12 07:49:45;;;;;;;34.23;32.57;;;;;;;;;;5094389;28;20267;-79
2023/01/12 07:52:12;;;;;;;33.00;31.40;;;;;;;;;;5093197;28;20462;-79
2023/01/12 07:54:39;;;;;;;33.80;32.20;;;;;;;;;;5093319;28;20448;-79
2023/01/12 07:57:07;;;;;;;31.42;29.92;;;;;;;;;;5092739;28;20980;-79
2023/01/12 07:59:34;;;;;;;32.27;30.67;;;;;;;;;;5093429;28;20193;-78
2023/01/12 08:02:01;;;;;;;33.88;32.17;;;;;;;;;;5093530;28;20463;-79
2023/01/12 08:04:29;;;;;;;32.85;31.13;;;;;;;;;;5092887;28;20202;-78
2023/01/12 08:06:57;;;;;;;30.63;29.02;;;;;;;;;;5093171;28;20582;-78
2023/01/12 08:09:24;;;;;;;31.93;30.33;;;;;;;;;;5093304;28;20305;-78
2023/01/12 08:11:51;;;;;;;32.70;31.10;;;;;;;;;;5092627;28;20487;-79
2023/01/12 08:14:23;;;;;;;30.98;29.38;;;;;;;;;;5092577;28;20509;-77
2023/01/12 08:16:52;;;;;;;32.10;30.40;;;;;;;;;;5093049;28;20231;-78
2023/01/12 08:19:20;;;;;;;33.33;31.52;;;;;;;;;;5093148;28;20208;-78
2023/01/12 08:21:51;;;;;;;34.13;32.33;;;;;;;;;;5093212;28;20272;-78
2023/01/12 08:24:20;;;;;;;35.30;33.50;;;;;;;;;;5092405;28;20405;-78
2023/01/12 08:26:49;;;;;;;31.80;30.13;;;;;;;;;;5092456;28;20224;-79
2023/01/12 08:29:17;;;;;;;34.17;32.17;;;;;;;;;;5093010;28;20202;-78
2023/01/12 08:31:44;;;;;;;33.50;31.80;;;;;;;;;;5093007;28;20488;-77
2023/01/12 08:34:11;;;;;;;34.88;33.08;;;;;;;;;;5095362;28;20267;-78
2023/01/12 08:36:40;;;;;;;33.33;31.52;;;;;;;;;;5093268;28;20283;-79
2023/01/12 08:39:08;;;;;;;34.10;32.30;;;;;;;;;;5093010;28;20198;-78
2023/01/12 08:41:36;;;;;;;33.47;31.67;;;;;;;;;;5092259;28;20665;-78
2023/01/12 08:44:05;;;;;;;34.58;32.70;;;;;;;;;;5092148;28;20215;-78
2023/01/12 08:46:33;;;;;;;34.90;33.00;;;;;;;;;;5092358;28;20281;-77
2023/01/12 08:49:00;;;;;;;34.58;32.67;;;;;;;;;;5092618;28;20197;-78
2023/01/12 08:51:27;;;;;;;34.00;32.10;;;;;;;;;;5096780;28;20221;-83
2023/01/12 08:53:54;;;;;;;37.35;35.38;;;;;;;;;;5099311;28;20204;-80
2023/01/12 08:56:23;;;;;;;35.10;33.10;;;;;;;;;;5101997;28;20274;-81
2023/01/12 08:58:50;;;;;;;37.92;35.83;;;;;;;;;;5101586;28;20415;-79
2023/01/12 09:01:18;;;;;;;37.08;35.00;;;;;;;;;;5100545;28;20206;-80
2023/01/12 09:03:45;;;;;;;38.22;36.13;;;;;;;;;;5098144;28;20205;-77
2023/01/12 09:06:13;;;;;;;35.20;33.30;;;;;;;;;;5097803;28;20690;-76
2023/01/12 09:08:40;;;;;;;38.43;36.23;;;;;;;;;;5096874;28;20209;-79
2023/01/12 09:11:07;;;;;;;39.20;37.10;;;;;;;;;;5097900;28;20452;-82
2023/01/12 09:13:36;;;;;;;39.40;37.10;;;;;;;;;;5095518;28;20430;-77
2023/01/12 09:16:04;;;;;;;36.97;34.67;;;;;;;;;;5094995;28;20830;-77
2023/01/12 09:18:31;;;;;;;37.03;35.03;;;;;;;;;;5096065;28;20202;-77
2023/01/12 09:21:01;;;;;;;39.13;36.83;;;;;;;;;;5095768;28;20426;-77
2023/01/12 09:23:28;;;;;;;37.43;35.33;;;;;;;;;;5094922;28;20231;-78
2023/01/12 09:25:55;;;;;;;37.83;35.83;;;;;;;;;;5095066;28;20446;-77
2023/01/12 09:28:22;;;;;;;36.55;34.55;;;;;;;;;;5095757;28;20444;-78
2023/01/12 09:30:51;;;;;;;35.72;33.83;;;;;;;;;;5095286;28;20735;-77
2023/01/12 09:33:18;;;;;;;33.63;31.83;;;;;;;;;;5095019;28;20222;-77
2023/01/12 09:35:45;;;;;;;35.15;33.25;;;;;;;;;;5095301;28;20211;-78
2023/01/12 09:38:12;;;;;;;36.47;34.37;;;;;;;;;;5095670;28;20208;-78
2023/01/12 09:40:43;;;;;;;36.87;34.67;;;;;;;;;;5095575;28;20442;-77
2023/01/12 09:48:44;;;;;;;41.28;39.03;;;;;;;;;;5095196;28;20488;-77
2023/01/12 09:51:14;;;;;;;41.47;39.07;;;;;;;;;;5095122;28;20270;-78
2023/01/12 09:53:42;;;;;;;39.60;37.40;;;;;;;;;;5094463;28;20431;-78
2023/01/12 09:56:14;;;;;;;40.95;38.67;;;;;;;;;;5094869;28;20248;-78
2023/01/12 09:58:53;;;;;;;40.43;38.23;;;;;;;;;;5094818;28;20638;-78
2023/01/12 10:01:22;;;;;;;40.10;37.90;;;;;;;;;;5095162;28;20402;-78
2023/01/12 10:03:49;;;;;;;42.00;39.45;;;;;;;;;;5094336;28;20826;-77
2023/01/12 10:06:17;;;;;;;38.93;36.73;;;;;;;;;;5094051;28;20761;-78
2023/01/12 10:08:46;;;;;;;39.55;37.35;;;;;;;;;;5094919;28;20516;-78
2023/01/12 10:11:17;;;;;;;39.60;37.40;;;;;;;;;;5094935;28;20205;-78
2023/01/12 10:14:07;;;;;;;38.30;36.10;;;;;;;;;;5094417;28;20471;-77
2023/01/12 10:16:41;;;;;;;38.43;36.33;;;;;;;;;;5073954;28;20487;-77
2023/01/12 10:19:22;;;;;;;36.93;34.83;;;;;;;;;;5095037;28;20924;-78
2023/01/12 10:21:51;;;;;;;38.30;36.03;;;;;;;;;;5096856;28;20437;-75
2023/01/12 10:24:20;;;;;;;37.95;35.75;;;;;;;;;;5097835;28;20490;-84
2023/01/12 10:26:51;;;;;;;36.83;34.73;;;;;;;;;;5098196;28;20244;-82
2023/01/12 10:29:19;;;;;;;37.97;35.87;;;;;;;;;;5099959;28;20497;-80
2023/01/12 10:31:48;;;;;;;38.83;36.58;;;;;;;;;;5100082;28;20458;-82
2023/01/12 10:34:15;;;;;;;39.72;37.42;;;;;;;;;;5096254;28;20263;-78
2023/01/12 10:36:43;;;;;;;35.57;33.47;;;;;;;;;;5094510;28;20225;-81
2023/01/12 10:39:26;;;;;;;37.47;35.38;;;;;;;;;;5097274;28;20749;-80
2023/01/12 10:42:08;;;;;;;38.23;35.90;;;;;;;;;;5096362;28;20182;-78
2023/01/12 10:44:35;;;;;;;36.20;34.10;;;;;;;;;;5099718;28;20406;-82
2023/01/12 10:47:10;;;;;;;37.50;35.20;;;;;;;;;;5099197;28;20434;-82
2023/01/12 10:49:38;;;;;;;40.88;38.28;;;;;;;;;;5097495;28;20443;-80
2023/01/12 10:52:09;;;;;;;37.33;34.90;;;;;;;;;;5097545;28;20306;-80
2023/01/12 10:54:40;;;;;;;38.07;35.67;;;;;;;;;;5096950;28;20505;-80
2023/01/12 10:57:12;;;;;;;39.17;36.80;;;;;;;;;;5098063;28;20504;-80
2023/01/12 10:59:40;;;;;;;39.20;36.33;;;;;;;;;;5097511;28;20501;-79
2023/01/12 11:02:13;;;;;;;38.07;35.77;;;;;;;;;;5097424;28;20468;-80
2023/01/12 11:04:41;;;;;;;38.37;36.07;;;;;;;;;;5097595;28;20418;-80
2023/01/12 11:07:10;;;;;;;37.17;34.87;;;;;;;;;;5097535;28;20463;-80
2023/01/12 11:09:38;;;;;;;36.43;34.27;;;;;;;;;;5097640;28;20452;-80
2023/01/12 11:12:06;;;;;;;36.50;34.40;;;;;;;;;;5097127;28;20453;-80
2023/01/12 11:14:36;;;;;;;37.57;35.37;;;;;;;;;;5096819;28;20255;-80
2023/01/12 11:17:15;;;;;;;37.33;35.23;;;;;;;;;;5097721;28;21074;-80
2023/01/12 11:19:44;;;;;;;36.37;34.17;;;;;;;;;;5113882;28;20420;-80
2023/01/12 11:22:15;;;;;;;37.93;35.73;;;;;;;;;;5112073;28;20440;-83
2023/01/12 11:24:44;;;;;;;38.00;35.70;;;;;;;;;;5106212;28;20421;-83
2023/01/12 11:27:15;;;;;;;37.13;35.03;;;;;;;;;;5097839;28;20511;-83
2023/01/12 11:29:44;;;;;;;37.37;35.17;;;;;;;;;;5098364;28;20436;-81
2023/01/12 11:32:15;;;;;;;41.90;39.20;;;;;;;;;;5098043;28;20471;-82
2023/01/12 11:34:50;;;;;;;37.63;35.53;;;;;;;;;;5097137;28;20453;-82
2023/01/12 11:37:17;;;;;;;39.17;36.80;;;;;;;;;;5097155;28;20540;-82
2023/01/12 11:39:51;;;;;;;39.73;37.43;;;;;;;;;;5096596;28;20480;-78
2023/01/12 11:45:08;;;;;;;38.60;36.30;;;;;;;;;;5093059;28;20408;-78
2023/01/12 11:47:37;;;;;;;38.10;36.00;;;;;;;;;;5093223;28;20438;-78
2023/01/12 11:50:07;;;;;;;40.97;38.57;;;;;;;;;;5093419;28;20469;-78
2023/01/12 11:52:35;;;;;;;41.67;38.83;;;;;;;;;;5093314;28;20527;-79
2023/01/12 11:55:02;;;;;;;38.37;36.07;;;;;;;;;;5092662;28;20422;-78
2023/01/12 11:57:40;;;;;;;41.77;39.37;;;;;;;;;;5092983;28;20508;-83
2023/01/12 12:00:17;;;;;;;38.60;36.40;;;;;;;;;;5095679;28;20413;-78
2023/01/12 12:02:52;;;;;;;38.70;36.40;;;;;;;;;;5093884;28;20515;-78
2023/01/12 12:05:27;;;;;;;37.53;34.97;;;;;;;;;;5094580;28;20411;-78
2023/01/12 12:08:10;;;;;;;37.37;35.33;;;;;;;;;;5097053;28;20451;-80
2023/01/12 12:10:41;;;;;;;37.30;35.10;;;;;;;;;;5093828;28;20410;-75
2023/01/12 12:13:23;;;;;;;37.53;35.27;;;;;;;;;;5092411;28;20510;-75
2023/01/12 12:15:55;;;;;;;37.73;35.43;;;;;;;;;;5072801;28;20408;-77
2023/01/12 12:18:27;;;;;;;37.27;35.17;;;;;;;;;;5072941;28;20408;-76
2023/01/12 12:21:02;;;;;;;37.73;35.43;;;;;;;;;;5072800;28;20477;-76
2023/01/12 12:23:32;;;;;;;39.93;37.53;;;;;;;;;;5072006;28;20515;-76
2023/01/12 12:26:04;;;;;;;38.80;36.60;;;;;;;;;;5071851;28;20458;-76
2023/01/12 12:28:44;;;;;;;41.13;38.83;;;;;;;;;;5074651;28;20787;-75
2023/01/12 12:31:19;;;;;;;38.00;35.90;;;;;;;;;;5076624;28;20453;-75
2023/01/12 12:33:56;;;;;;;38.80;36.60;;;;;;;;;;5075668;28;20480;-76
2023/01/12 12:36:29;;;;;;;36.50;34.50;;;;;;;;;;5075617;28;20595;-76
2023/01/12 12:39:10;;;;;;;36.90;34.70;;;;;;;;;;5076496;28;20449;-76
2023/01/12 12:47:33;;;;;;;37.57;35.07;;;;;;;;;;5077845;28;20458;-76
2023/01/12 12:50:01;;;;;;;40.77;38.57;;;;;;;;;;5079421;28;20441;-86
2023/01/12 12:52:31;;;;;;;37.70;35.60;;;;;;;;;;5078955;28;20438;-79
2023/01/12 12:54:58;;;;;;;39.50;37.40;;;;;;;;;;5078311;28;20871;-85
2023/01/12 12:57:25;;;;;;;37.60;35.60;;;;;;;;;;5081014;28;20456;-81
2023/01/12 12:59:53;;;;;;;36.40;34.40;;;;;;;;;;5081342;28;20503;-82
2023/01/12 13:02:47;;;;;;;36.90;34.90;;;;;;;;;;5080263;28;20402;-82
2023/01/12 13:05:34;;;;;;;36.10;33.70;;;;;;;;;;5052390;28;20472;-79
2023/01/12 13:08:03;;;;;;;36.53;34.33;;;;;;;;;;5078052;28;20534;-77
2023/01/12 13:10:31;;;;;;;38.17;36.07;;;;;;;;;;5076998;28;20445;-77
2023/01/12 13:13:00;;;;;;;39.10;37.00;;;;;;;;;;5078159;28;20492;-83
2023/01/12 13:15:31;;;;;;;37.30;35.20;;;;;;;;;;5079253;28;20932;-88
2023/01/12 13:17:58;;;;;;;37.67;35.47;;;;;;;;;;5080665;28;20948;-80
2023/01/12 13:20:35;;;;;;;37.43;35.33;;;;;;;;;;5080366;28;20472;-79
2023/01/12 13:23:04;;;;;;;40.87;38.50;;;;;;;;;;5080637;28;20427;-85
2023/01/12 13:25:50;;;;;;;44.10;41.40;;;;;;;;;;5081887;28;20466;-84
2023/01/12 13:28:19;;;;;;;44.73;41.53;;;;;;;;;;5081874;28;20423;-84
2023/01/12 13:30:50;;;;;;;40.03;37.73;;;;;;;;;;5081752;28;20427;-84
2023/01/12 13:33:24;;;;;;;66.30;60.40;;;;;;;;;;5080319;28;20503;-84
2023/01/12 13:36:02;;;;;;;47.33;44.43;;;;;;;;;;5081407;28;20475;-84
2023/01/12 13:38:36;;;;;;;47.57;44.63;;;;;;;;;;5081807;28;20486;-82
2023/01/12 13:41:05;;;;;;;40.40;38.00;;;;;;;;;;5079756;28;20454;-84
2023/01/12 13:43:33;;;;;;;38.20;36.00;;;;;;;;;;5080260;28;20945;-84
2023/01/12 13:46:02;;;;;;;39.10;36.90;;;;;;;;;;5080755;28;20452;-84
2023/01/12 13:48:30;;;;;;;36.87;34.87;;;;;;;;;;5081648;28;20490;-84
2023/01/12 13:51:00;;;;;;;34.97;33.07;;;;;;;;;;5081248;28;20427;-85
2023/01/12 13:53:28;;;;;;;34.73;32.70;;;;;;;;;;5080718;28;20505;-84
2023/01/12 13:56:00;;;;;;;35.10;33.20;;;;;;;;;;5080449;28;20437;-85
2023/01/12 13:58:28;;;;;;;38.60;36.60;;;;;;;;;;5081064;28;20457;-84
2023/01/12 14:00:56;;;;;;;39.27;37.20;;;;;;;;;;5081021;28;20413;-85
2023/01/12 14:03:29;;;;;;;35.30;33.40;;;;;;;;;;5080859;28;20443;-84
2023/01/12 14:06:01;;;;;;;39.97;37.77;;;;;;;;;;5079548;28;20437;-81
2023/01/12 14:08:36;;;;;;;34.67;32.67;;;;;;;;;;5078238;28;20443;-81
2023/01/12 14:11:11;;;;;;;35.40;33.50;;;;;;;;;;5078629;28;20412;-81
2023/01/12 14:13:45;;;;;;;34.70;32.80;;;;;;;;;;5077972;28;20469;-80
2023/01/12 14:18:59;;;;;;;34.90;32.90;;;;;;;;;;5078690;28;20464;-80
2023/01/12 14:21:27;;;;;;;34.60;32.70;;;;;;;;;;5077676;28;20493;-81
2023/01/12 14:24:08;;;;;;;34.97;33.07;;;;;;;;;;5078299;28;20449;-80
2023/01/12 14:26:37;;;;;;;38.00;35.80;;;;;;;;;;5077991;28;20439;-80
2023/01/12 14:29:04;;;;;;;36.83;34.83;;;;;;;;;;5077846;28;20428;-81
2023/01/12 14:31:32;;;;;;;35.83;33.83;;;;;;;;;;5077838;28;20472;-80
2023/01/12 14:34:00;;;;;;;37.57;35.57;;;;;;;;;;5077956;28;20549;-80
2023/01/12 14:36:28;;;;;;;36.33;34.33;;;;;;;;;;5077782;28;20432;-80
2023/01/12 14:38:56;;;;;;;38.97;36.63;;;;;;;;;;5077831;28;20456;-80
2023/01/12 14:47:02;;;;;;;35.40;33.40;;;;;;;;;;5077842;28;20503;-81
2023/01/12 14:49:30;;;;;;;38.80;36.50;;;;;;;;;;5077947;28;20424;-81
2023/01/12 14:51:57;;;;;;;38.20;36.00;;;;;;;;;;5077167;28;20937;-80
2023/01/12 14:54:26;;;;;;;38.30;36.10;;;;;;;;;;5077687;28;20984;-81
2023/01/12 14:56:57;;;;;;;37.07;34.77;;;;;;;;;;5077070;28;20447;-80
2023/01/12 14:59:28;;;;;;;37.60;35.33;;;;;;;;;;5077845;28;20426;-80
2023/01/12 15:02:08;;;;;;;39.10;36.60;;;;;;;;;;5077661;28;20803;-81
2023/01/12 15:04:35;;;;;;;41.27;38.77;;;;;;;;;;5077226;28;20448;-80
2023/01/12 15:07:03;;;;;;;36.90;34.90;;;;;;;;;;5077919;28;20503;-80
2023/01/12 15:09:31;;;;;;;38.13;35.93;;;;;;;;;;5076959;28;20446;-81
2023/01/12 15:11:58;;;;;;;39.80;37.10;;;;;;;;;;5076785;28;20472;-81
2023/01/12 15:14:28;;;;;;;41.03;38.63;;;;;;;;;;5077525;28;20477;-80